sensor_id;sensor_type;location;lat;lon;timestamp;temperature;humidity
39017;DHT22;24784;45.582;5.276;2022-09-16T00:00:40;18.80;99.90
39017;DHT22;24784;45.582;5.276;2022-09-16T00:03:07;18.80;99.90
39017;DHT22;24784;45.582;5.276;2022-09-16T00:05:33;18.90;99.90
39017;DHT22;24784;45.582;5.276;2022-09-16T00:08:02;18.90;99.90
39017;DHT22;24784;45.582;5.276;2022-09-16T00:10:28;18.90;99.90
39017;DHT22;24784;45.582;5.276;2022-09-16T00:12:54;18.90;99.90
39017;DHT22;24784;45.582;5.276;2022-09-16T00:15:19;18.80;99.90
39017;DHT22;24784;45.582;5.276;2022-09-16T00:17:45;18.80;99.90
39017;DHT22;24784;45.582;5.276;2022-09-16T00:20:11;18.80;99.90
39017;DHT22;24784;45.582;5.276;2022-09-16T00:22:37;18.80;99.90
39017;DHT22;24784;45.582;5.276;2022-09-16T00:25:03;18.80;99.90
39017;DHT22;24784;45.582;5.276;2022-09-16T00:27:29;18.80;99.90
39017;DHT22;24784;45.582;5.276;2022-09-16T00:29:54;18.70;99.90
39017;DHT22;24784;45.582;5.276;2022-09-16T00:32:20;18.70;99.90
39017;DHT22;24784;45.582;5.276;2022-09-16T00:34:48;18.70;99.90
39017;DHT22;24784;45.582;5.276;2022-09-16T00:37:14;18.50;99.90
39017;DHT22;24784;45.582;5.276;2022-09-16T00:39:40;18.60;99.90
39017;DHT22;24784;45.582;5.276;2022-09-16T00:42:05;18.60;99.90
39017;DHT22;24784;45.582;5.276;2022-09-16T00:50:28;18.40;99.90
39017;DHT22;24784;45.582;5.276;2022-09-16T00:52:56;18.50;99.90
39017;DHT22;24784;45.582;5.276;2022-09-16T00:55:27;18.50;99.90
39017;DHT22;24784;45.582;5.276;2022-09-16T00:57:57;18.60;99.90
39017;DHT22;24784;45.582;5.276;2022-09-16T01:00:24;18.50;99.90
39017;DHT22;24784;45.582;5.276;2022-09-16T01:02:50;18.50;99.90
39017;DHT22;24784;45.582;5.276;2022-09-16T01:05:19;18.60;99.90
39017;DHT22;24784;45.582;5.276;2022-09-16T01:07:48;18.40;99.90
39017;DHT22;24784;45.582;5.276;2022-09-16T01:10:20;18.30;99.90
39017;DHT22;24784;45.582;5.276;2022-09-16T01:12:59;18.40;99.90
39017;DHT22;24784;45.582;5.276;2022-09-16T01:18:34;18.50;99.90
39017;DHT22;24784;45.582;5.276;2022-09-16T01:31:51;18.40;99.90
39017;DHT22;24784;45.582;5.276;2022-09-16T01:37:07;18.50;99.90
39017;DHT22;24784;45.582;5.276;2022-09-16T01:39:49;18.40;99.90
39017;DHT22;24784;45.582;5.276;2022-09-16T01:45:29;18.50;99.90
39017;DHT22;24784;45.582;5.276;2022-09-16T01:57:56;18.40;99.90
39017;DHT22;24784;45.582;5.276;2022-09-16T02:00:23;18.40;99.90
39017;DHT22;24784;45.582;5.276;2022-09-16T02:02:57;18.30;99.90
39017;DHT22;24784;45.582;5.276;2022-09-16T02:05:36;18.40;99.90
39017;DHT22;24784;45.582;5.276;2022-09-16T02:08:10;18.40;99.90
39017;DHT22;24784;45.582;5.276;2022-09-16T02:10:38;18.40;99.90
39017;DHT22;24784;45.582;5.276;2022-09-16T02:13:13;18.50;99.90
39017;DHT22;24784;45.582;5.276;2022-09-16T02:15:41;18.50;99.90
39017;DHT22;24784;45.582;5.276;2022-09-16T02:18:13;18.40;99.90
39017;DHT22;24784;45.582;5.276;2022-09-16T02:20:44;18.50;99.90
39017;DHT22;24784;45.582;5.276;2022-09-16T02:23:23;18.50;99.90
39017;DHT22;24784;45.582;5.276;2022-09-16T02:25:51;18.40;99.90
39017;DHT22;24784;45.582;5.276;2022-09-16T02:28:38;18.40;99.90
39017;DHT22;24784;45.582;5.276;2022-09-16T02:31:07;18.40;99.90
39017;DHT22;24784;45.582;5.276;2022-09-16T02:33:38;18.50;99.90
39017;DHT22;24784;45.582;5.276;2022-09-16T02:36:06;18.40;99.90
39017;DHT22;24784;45.582;5.276;2022-09-16T02:38:40;18.40;99.90
39017;DHT22;24784;45.582;5.276;2022-09-16T02:41:09;18.40;99.90
39017;DHT22;24784;45.582;5.276;2022-09-16T02:43:40;18.40;99.90
39017;DHT22;24784;45.582;5.276;2022-09-16T02:57:16;18.40;99.90
39017;DHT22;24784;45.582;5.276;2022-09-16T02:59:43;18.30;99.90
39017;DHT22;24784;45.582;5.276;2022-09-16T03:02:09;18.30;99.90
39017;DHT22;24784;45.582;5.276;2022-09-16T03:04:35;18.40;99.90
39017;DHT22;24784;45.582;5.276;2022-09-16T03:07:03;18.30;99.90
39017;DHT22;24784;45.582;5.276;2022-09-16T03:09:32;18.30;99.90
39017;DHT22;24784;45.582;5.276;2022-09-16T03:12:22;18.30;99.90
39017;DHT22;24784;45.582;5.276;2022-09-16T03:17:44;18.30;99.90
39017;DHT22;24784;45.582;5.276;2022-09-16T03:23:37;18.30;99.90
39017;DHT22;24784;45.582;5.276;2022-09-16T03:26:34;18.20;99.90
39017;DHT22;24784;45.582;5.276;2022-09-16T03:34:32;18.30;99.90
39017;DHT22;24784;45.582;5.276;2022-09-16T03:37:02;18.30;99.90
39017;DHT22;24784;45.582;5.276;2022-09-16T03:39:30;18.30;99.90
39017;DHT22;24784;45.582;5.276;2022-09-16T03:42:06;18.30;99.90
39017;DHT22;24784;45.582;5.276;2022-09-16T03:44:37;18.20;99.90
39017;DHT22;24784;45.582;5.276;2022-09-16T03:47:04;18.10;99.90
39017;DHT22;24784;45.582;5.276;2022-09-16T03:49:30;18.10;99.90
39017;DHT22;24784;45.582;5.276;2022-09-16T03:51:56;18.20;99.90
39017;DHT22;24784;45.582;5.276;2022-09-16T03:54:23;18.10;99.90
39017;DHT22;24784;45.582;5.276;2022-09-16T03:56:49;18.10;99.90
39017;DHT22;24784;45.582;5.276;2022-09-16T03:59:15;18.00;99.90
39017;DHT22;24784;45.582;5.276;2022-09-16T04:01:42;18.00;99.90
39017;DHT22;24784;45.582;5.276;2022-09-16T04:04:08;18.00;99.90
39017;DHT22;24784;45.582;5.276;2022-09-16T04:06:34;18.00;99.90
39017;DHT22;24784;45.582;5.276;2022-09-16T04:09:04;17.90;99.90
39017;DHT22;24784;45.582;5.276;2022-09-16T04:11:31;17.90;99.90
39017;DHT22;24784;45.582;5.276;2022-09-16T04:13:58;17.90;99.90
39017;DHT22;24784;45.582;5.276;2022-09-16T04:16:24;17.90;99.90
39017;DHT22;24784;45.582;5.276;2022-09-16T04:18:50;17.80;99.90
39017;DHT22;24784;45.582;5.276;2022-09-16T04:21:16;17.80;99.90
39017;DHT22;24784;45.582;5.276;2022-09-16T04:23:42;17.80;99.90
39017;DHT22;24784;45.582;5.276;2022-09-16T04:26:09;17.80;99.90
39017;DHT22;24784;45.582;5.276;2022-09-16T04:28:35;17.70;99.90
39017;DHT22;24784;45.582;5.276;2022-09-16T04:31:03;17.70;99.90
39017;DHT22;24784;45.582;5.276;2022-09-16T04:33:30;17.70;99.90
39017;DHT22;24784;45.582;5.276;2022-09-16T04:36:09;17.70;99.90
39017;DHT22;24784;45.582;5.276;2022-09-16T04:38:37;17.70;99.90
39017;DHT22;24784;45.582;5.276;2022-09-16T04:41:14;17.60;99.90
39017;DHT22;24784;45.582;5.276;2022-09-16T04:43:40;17.60;99.90
39017;DHT22;24784;45.582;5.276;2022-09-16T04:46:06;17.70;99.90
39017;DHT22;24784;45.582;5.276;2022-09-16T04:48:33;17.60;99.90
39017;DHT22;24784;45.582;5.276;2022-09-16T04:51:08;17.60;99.90
39017;DHT22;24784;45.582;5.276;2022-09-16T04:53:35;17.60;99.90
39017;DHT22;24784;45.582;5.276;2022-09-16T04:56:12;17.50;99.90
39017;DHT22;24784;45.582;5.276;2022-09-16T04:58:41;17.50;99.90
39017;DHT22;24784;45.582;5.276;2022-09-16T05:01:09;17.50;99.90
39017;DHT22;24784;45.582;5.276;2022-09-16T05:03:39;17.40;99.90
39017;DHT22;24784;45.582;5.276;2022-09-16T05:06:07;17.40;99.90
39017;DHT22;24784;45.582;5.276;2022-09-16T05:08:33;17.40;99.90
39017;DHT22;24784;45.582;5.276;2022-09-16T05:11:08;17.40;99.90
39017;DHT22;24784;45.582;5.276;2022-09-16T05:13:34;17.30;99.90
39017;DHT22;24784;45.582;5.276;2022-09-16T05:16:04;17.30;99.90
39017;DHT22;24784;45.582;5.276;2022-09-16T05:18:31;17.30;99.90
39017;DHT22;24784;45.582;5.276;2022-09-16T05:20:59;17.20;99.90
39017;DHT22;24784;45.582;5.276;2022-09-16T05:23:25;17.20;99.90
39017;DHT22;24784;45.582;5.276;2022-09-16T05:25:51;17.20;99.90
39017;DHT22;24784;45.582;5.276;2022-09-16T05:28:17;17.20;99.90
39017;DHT22;24784;45.582;5.276;2022-09-16T05:30:43;17.20;99.90
39017;DHT22;24784;45.582;5.276;2022-09-16T05:33:09;17.20;99.90
39017;DHT22;24784;45.582;5.276;2022-09-16T05:35:34;17.30;99.90
39017;DHT22;24784;45.582;5.276;2022-09-16T05:38:00;17.30;99.90
39017;DHT22;24784;45.582;5.276;2022-09-16T05:40:26;17.30;99.90
39017;DHT22;24784;45.582;5.276;2022-09-16T05:42:52;17.30;99.90
39017;DHT22;24784;45.582;5.276;2022-09-16T05:45:18;17.30;99.90
39017;DHT22;24784;45.582;5.276;2022-09-16T05:47:49;17.40;99.90
39017;DHT22;24784;45.582;5.276;2022-09-16T05:50:16;17.30;99.90
39017;DHT22;24784;45.582;5.276;2022-09-16T05:52:42;17.30;99.90
39017;DHT22;24784;45.582;5.276;2022-09-16T05:55:08;17.30;99.90
39017;DHT22;24784;45.582;5.276;2022-09-16T05:57:34;17.30;99.90
39017;DHT22;24784;45.582;5.276;2022-09-16T05:59:59;17.30;99.90
39017;DHT22;24784;45.582;5.276;2022-09-16T06:02:25;17.40;99.90
39017;DHT22;24784;45.582;5.276;2022-09-16T06:04:51;17.40;99.90
39017;DHT22;24784;45.582;5.276;2022-09-16T06:07:17;17.40;99.90
39017;DHT22;24784;45.582;5.276;2022-09-16T06:09:43;17.40;99.90
39017;DHT22;24784;45.582;5.276;2022-09-16T06:12:09;17.50;99.90
39017;DHT22;24784;45.582;5.276;2022-09-16T06:14:35;17.30;99.90
39017;DHT22;24784;45.582;5.276;2022-09-16T06:17:01;17.20;99.90
39017;DHT22;24784;45.582;5.276;2022-09-16T06:19:27;17.40;99.90
39017;DHT22;24784;45.582;5.276;2022-09-16T06:21:53;17.40;99.90
39017;DHT22;24784;45.582;5.276;2022-09-16T06:24:19;17.40;99.90
39017;DHT22;24784;45.582;5.276;2022-09-16T06:26:46;17.40;99.90
39017;DHT22;24784;45.582;5.276;2022-09-16T06:29:13;17.50;99.90
39017;DHT22;24784;45.582;5.276;2022-09-16T06:31:39;17.50;99.90
39017;DHT22;24784;45.582;5.276;2022-09-16T06:34:06;17.50;99.90
39017;DHT22;24784;45.582;5.276;2022-09-16T06:36:35;17.50;99.90
39017;DHT22;24784;45.582;5.276;2022-09-16T06:39:01;17.50;99.90
39017;DHT22;24784;45.582;5.276;2022-09-16T06:41:29;17.40;99.90
39017;DHT22;24784;45.582;5.276;2022-09-16T06:43:55;17.50;99.90
39017;DHT22;24784;45.582;5.276;2022-09-16T06:46:23;17.50;99.90
39017;DHT22;24784;45.582;5.276;2022-09-16T06:48:51;17.70;99.90
39017;DHT22;24784;45.582;5.276;2022-09-16T06:51:25;17.70;99.90
39017;DHT22;24784;45.582;5.276;2022-09-16T06:53:52;17.70;99.90
39017;DHT22;24784;45.582;5.276;2022-09-16T06:56:20;17.80;99.90
39017;DHT22;24784;45.582;5.276;2022-09-16T06:58:48;17.80;99.90
39017;DHT22;24784;45.582;5.276;2022-09-16T07:01:16;17.80;99.90
39017;DHT22;24784;45.582;5.276;2022-09-16T07:03:44;17.70;99.90
39017;DHT22;24784;45.582;5.276;2022-09-16T07:06:12;17.80;99.90
39017;DHT22;24784;45.582;5.276;2022-09-16T07:08:39;17.80;99.90
39017;DHT22;24784;45.582;5.276;2022-09-16T07:11:17;17.70;99.90
39017;DHT22;24784;45.582;5.276;2022-09-16T07:13:44;17.70;99.90
39017;DHT22;24784;45.582;5.276;2022-09-16T07:16:15;17.70;99.90
39017;DHT22;24784;45.582;5.276;2022-09-16T07:18:42;17.70;99.90
39017;DHT22;24784;45.582;5.276;2022-09-16T07:23:37;17.60;99.90
39017;DHT22;24784;45.582;5.276;2022-09-16T07:26:09;17.60;99.90
39017;DHT22;24784;45.582;5.276;2022-09-16T07:28:36;17.60;99.90
39017;DHT22;24784;45.582;5.276;2022-09-16T07:31:07;17.70;99.90
39017;DHT22;24784;45.582;5.276;2022-09-16T07:33:39;17.70;99.90
39017;DHT22;24784;45.582;5.276;2022-09-16T07:36:06;17.60;99.90
39017;DHT22;24784;45.582;5.276;2022-09-16T07:38:32;17.30;99.90
39017;DHT22;24784;45.582;5.276;2022-09-16T07:41:09;17.40;99.90
39017;DHT22;24784;45.582;5.276;2022-09-16T07:43:36;17.30;99.90
39017;DHT22;24784;45.582;5.276;2022-09-16T07:46:02;17.30;99.90
39017;DHT22;24784;45.582;5.276;2022-09-16T07:48:29;17.30;99.90
39017;DHT22;24784;45.582;5.276;2022-09-16T07:51:02;17.40;99.90
39017;DHT22;24784;45.582;5.276;2022-09-16T07:53:30;17.40;99.90
39017;DHT22;24784;45.582;5.276;2022-09-16T07:56:03;17.30;99.90
39017;DHT22;24784;45.582;5.276;2022-09-16T07:58:29;17.40;99.90
39017;DHT22;24784;45.582;5.276;2022-09-16T08:00:55;17.60;99.90
39017;DHT22;24784;45.582;5.276;2022-09-16T08:03:21;17.70;99.90
39017;DHT22;24784;45.582;5.276;2022-09-16T08:05:47;17.80;99.90
39017;DHT22;24784;45.582;5.276;2022-09-16T08:08:12;18.00;99.90
39017;DHT22;24784;45.582;5.276;2022-09-16T08:10:38;18.00;99.90
39017;DHT22;24784;45.582;5.276;2022-09-16T08:13:05;18.10;99.90
39017;DHT22;24784;45.582;5.276;2022-09-16T08:15:32;18.10;99.90
39017;DHT22;24784;45.582;5.276;2022-09-16T08:17:57;18.10;99.90
39017;DHT22;24784;45.582;5.276;2022-09-16T08:20:24;18.10;99.90
39017;DHT22;24784;45.582;5.276;2022-09-16T08:22:50;18.10;99.90
39017;DHT22;24784;45.582;5.276;2022-09-16T08:25:16;18.10;99.90
39017;DHT22;24784;45.582;5.276;2022-09-16T08:27:42;18.20;99.90
39017;DHT22;24784;45.582;5.276;2022-09-16T08:30:09;18.30;99.90
39017;DHT22;24784;45.582;5.276;2022-09-16T08:32:35;18.20;99.90
39017;DHT22;24784;45.582;5.276;2022-09-16T08:35:01;18.20;99.90
39017;DHT22;24784;45.582;5.276;2022-09-16T08:37:27;18.00;99.90
39017;DHT22;24784;45.582;5.276;2022-09-16T08:39:53;18.20;99.90
39017;DHT22;24784;45.582;5.276;2022-09-16T08:42:29;18.40;99.90
39017;DHT22;24784;45.582;5.276;2022-09-16T08:45:17;18.40;99.90
39017;DHT22;24784;45.582;5.276;2022-09-16T08:50:53;18.50;99.90
39017;DHT22;24784;45.582;5.276;2022-09-16T08:53:33;18.60;99.90
39017;DHT22;24784;45.582;5.276;2022-09-16T08:56:03;18.70;99.90
39017;DHT22;24784;45.582;5.276;2022-09-16T08:58:38;18.70;99.90
39017;DHT22;24784;45.582;5.276;2022-09-16T09:01:19;18.60;99.90
39017;DHT22;24784;45.582;5.276;2022-09-16T09:03:47;18.50;99.90
39017;DHT22;24784;45.582;5.276;2022-09-16T09:06:28;18.50;99.90
39017;DHT22;24784;45.582;5.276;2022-09-16T09:16:46;18.70;99.90
39017;DHT22;24784;45.582;5.276;2022-09-16T09:22:04;18.70;99.90
39017;DHT22;24784;45.582;5.276;2022-09-16T09:30:35;19.10;99.90
39017;DHT22;24784;45.582;5.276;2022-09-16T09:33:32;19.20;99.90
39017;DHT22;24784;45.582;5.276;2022-09-16T09:36:16;19.10;99.90
39017;DHT22;24784;45.582;5.276;2022-09-16T09:39:06;18.90;99.90
39017;DHT22;24784;45.582;5.276;2022-09-16T09:47:21;19.10;99.90
39017;DHT22;24784;45.582;5.276;2022-09-16T09:49:55;19.10;99.90
39017;DHT22;24784;45.582;5.276;2022-09-16T09:55:14;19.00;99.90
39017;DHT22;24784;45.582;5.276;2022-09-16T09:57:49;19.10;99.90
39017;DHT22;24784;45.582;5.276;2022-09-16T10:00:19;18.70;99.90
39017;DHT22;24784;45.582;5.276;2022-09-16T10:02:47;18.70;99.90
39017;DHT22;24784;45.582;5.276;2022-09-16T10:05:28;19.00;99.90
39017;DHT22;24784;45.582;5.276;2022-09-16T10:08:03;19.50;99.90
39017;DHT22;24784;45.582;5.276;2022-09-16T10:10:32;19.70;99.90
39017;DHT22;24784;45.582;5.276;2022-09-16T10:13:12;19.70;99.90
39017;DHT22;24784;45.582;5.276;2022-09-16T10:15:38;20.00;99.90
39017;DHT22;24784;45.582;5.276;2022-09-16T10:18:28;20.20;99.90
39017;DHT22;24784;45.582;5.276;2022-09-16T10:21:14;20.30;99.90
39017;DHT22;24784;45.582;5.276;2022-09-16T10:23:51;20.50;99.90
39017;DHT22;24784;45.582;5.276;2022-09-16T10:26:23;20.20;99.90
39017;DHT22;24784;45.582;5.276;2022-09-16T10:31:24;20.20;99.90
39017;DHT22;24784;45.582;5.276;2022-09-16T10:33:50;20.30;99.90
39017;DHT22;24784;45.582;5.276;2022-09-16T10:36:22;20.40;99.90
39017;DHT22;24784;45.582;5.276;2022-09-16T10:38:56;20.30;99.90
39017;DHT22;24784;45.582;5.276;2022-09-16T10:41:28;20.50;99.90
39017;DHT22;24784;45.582;5.276;2022-09-16T10:44:00;20.40;99.90
39017;DHT22;24784;45.582;5.276;2022-09-16T10:46:27;20.60;99.90
39017;DHT22;24784;45.582;5.276;2022-09-16T10:48:58;20.60;99.90
39017;DHT22;24784;45.582;5.276;2022-09-16T10:51:30;20.70;99.90
39017;DHT22;24784;45.582;5.276;2022-09-16T10:53:59;20.80;99.90
39017;DHT22;24784;45.582;5.276;2022-09-16T10:56:45;21.00;99.90
39017;DHT22;24784;45.582;5.276;2022-09-16T10:59:13;20.90;99.90
39017;DHT22;24784;45.582;5.276;2022-09-16T11:05:07;20.70;99.90
39017;DHT22;24784;45.582;5.276;2022-09-16T11:13:25;20.40;99.90
39017;DHT22;24784;45.582;5.276;2022-09-16T11:16:01;20.10;99.90
39017;DHT22;24784;45.582;5.276;2022-09-16T11:18:39;20.00;99.90
39017;DHT22;24784;45.582;5.276;2022-09-16T11:56:16;18.70;99.90
39017;DHT22;24784;45.582;5.276;2022-09-16T11:58:48;18.60;99.90
39017;DHT22;24784;45.582;5.276;2022-09-16T12:01:27;18.60;99.90
39017;DHT22;24784;45.582;5.276;2022-09-16T12:06:41;18.50;99.90
39017;DHT22;24784;45.582;5.276;2022-09-16T12:09:42;18.50;99.90
39017;DHT22;24784;45.582;5.276;2022-09-16T12:12:12;18.70;99.90
39017;DHT22;24784;45.582;5.276;2022-09-16T12:14:43;18.70;99.90
39017;DHT22;24784;45.582;5.276;2022-09-16T12:17:17;18.70;99.90
39017;DHT22;24784;45.582;5.276;2022-09-16T12:22:34;18.70;99.90
39017;DHT22;24784;45.582;5.276;2022-09-16T12:30:59;18.80;99.90
39017;DHT22;24784;45.582;5.276;2022-09-16T12:33:39;18.90;99.90
39017;DHT22;24784;45.582;5.276;2022-09-16T12:36:13;19.10;99.90
39017;DHT22;24784;45.582;5.276;2022-09-16T12:41:19;19.40;99.90
39017;DHT22;24784;45.582;5.276;2022-09-16T13:01:11;19.50;99.90
39017;DHT22;24784;45.582;5.276;2022-09-16T13:03:47;19.40;99.90
39017;DHT22;24784;45.582;5.276;2022-09-16T13:06:31;19.40;99.90
39017;DHT22;24784;45.582;5.276;2022-09-16T13:09:19;19.40;99.90
39017;DHT22;24784;45.582;5.276;2022-09-16T13:12:00;19.70;99.90
39017;DHT22;24784;45.582;5.276;2022-09-16T13:14:50;19.80;99.90
39017;DHT22;24784;45.582;5.276;2022-09-16T13:19:53;20.20;99.90
39017;DHT22;24784;45.582;5.276;2022-09-16T13:24:54;20.30;99.90
39017;DHT22;24784;45.582;5.276;2022-09-16T13:27:31;20.20;99.90
39017;DHT22;24784;45.582;5.276;2022-09-16T13:30:12;20.20;99.90
39017;DHT22;24784;45.582;5.276;2022-09-16T13:37:46;20.50;99.90
39017;DHT22;24784;45.582;5.276;2022-09-16T13:40:22;20.50;99.90
39017;DHT22;24784;45.582;5.276;2022-09-16T13:42:48;20.40;99.90
39017;DHT22;24784;45.582;5.276;2022-09-16T13:48:05;20.30;99.90
39017;DHT22;24784;45.582;5.276;2022-09-16T13:50:35;20.30;99.90
39017;DHT22;24784;45.582;5.276;2022-09-16T13:53:20;20.40;99.90
39017;DHT22;24784;45.582;5.276;2022-09-16T13:55:48;20.40;99.90
39017;DHT22;24784;45.582;5.276;2022-09-16T14:06:43;19.90;99.90
39017;DHT22;24784;45.582;5.276;2022-09-16T14:14:44;19.80;99.90
39017;DHT22;24784;45.582;5.276;2022-09-16T14:17:19;19.80;99.60
39017;DHT22;24784;45.582;5.276;2022-09-16T14:19:48;19.80;99.90
39017;DHT22;24784;45.582;5.276;2022-09-16T14:22:18;19.70;99.90
39017;DHT22;24784;45.582;5.276;2022-09-16T14:24:47;19.90;99.90
39017;DHT22;24784;45.582;5.276;2022-09-16T14:29:59;19.90;99.80
39017;DHT22;24784;45.582;5.276;2022-09-16T14:32:26;19.90;99.90
39017;DHT22;24784;45.582;5.276;2022-09-16T14:34:53;19.90;99.90
39017;DHT22;24784;45.582;5.276;2022-09-16T14:37:23;19.80;99.90
39017;DHT22;24784;45.582;5.276;2022-09-16T14:39:51;19.80;99.90
39017;DHT22;24784;45.582;5.276;2022-09-16T14:42:19;19.60;99.90
39017;DHT22;24784;45.582;5.276;2022-09-16T14:44:49;19.70;99.90
39017;DHT22;24784;45.582;5.276;2022-09-16T14:47:35;19.70;99.90
39017;DHT22;24784;45.582;5.276;2022-09-16T14:50:10;19.70;99.90
39017;DHT22;24784;45.582;5.276;2022-09-16T14:52:37;19.70;99.90
39017;DHT22;24784;45.582;5.276;2022-09-16T14:55:24;19.80;99.90
39017;DHT22;24784;45.582;5.276;2022-09-16T14:57:51;19.70;99.90
39017;DHT22;24784;45.582;5.276;2022-09-16T15:00:20;19.90;99.90
39017;DHT22;24784;45.582;5.276;2022-09-16T15:02:49;19.90;99.90
39017;DHT22;24784;45.582;5.276;2022-09-16T15:05:22;20.00;99.90
39017;DHT22;24784;45.582;5.276;2022-09-16T15:07:50;20.00;99.50
39017;DHT22;24784;45.582;5.276;2022-09-16T15:10:25;20.00;99.80
39017;DHT22;24784;45.582;5.276;2022-09-16T15:12:56;19.90;99.40
39017;DHT22;24784;45.582;5.276;2022-09-16T15:15:31;19.80;99.80
39017;DHT22;24784;45.582;5.276;2022-09-16T15:18:18;19.70;99.20
39017;DHT22;24784;45.582;5.276;2022-09-16T15:20:51;19.70;99.30
39017;DHT22;24784;45.582;5.276;2022-09-16T15:23:22;19.70;99.90
39017;DHT22;24784;45.582;5.276;2022-09-16T15:25:57;19.70;99.90
39017;DHT22;24784;45.582;5.276;2022-09-16T15:28:24;19.70;99.60
39017;DHT22;24784;45.582;5.276;2022-09-16T15:30:52;19.80;99.80
39017;DHT22;24784;45.582;5.276;2022-09-16T15:33:34;19.80;99.60
39017;DHT22;24784;45.582;5.276;2022-09-16T15:36:01;19.80;99.50
39017;DHT22;24784;45.582;5.276;2022-09-16T15:38:27;19.70;99.90
39017;DHT22;24784;45.582;5.276;2022-09-16T15:41:04;19.70;99.90
39017;DHT22;24784;45.582;5.276;2022-09-16T15:43:36;19.70;99.90
39017;DHT22;24784;45.582;5.276;2022-09-16T15:46:12;19.70;99.50
39017;DHT22;24784;45.582;5.276;2022-09-16T15:48:46;19.70;98.80
39017;DHT22;24784;45.582;5.276;2022-09-16T15:53:57;19.60;97.80
39017;DHT22;24784;45.582;5.276;2022-09-16T15:56:29;19.60;97.60
39017;DHT22;24784;45.582;5.276;2022-09-16T15:59:00;19.60;97.00
39017;DHT22;24784;45.582;5.276;2022-09-16T16:01:38;19.60;97.70
39017;DHT22;24784;45.582;5.276;2022-09-16T16:04:07;19.60;97.70
39017;DHT22;24784;45.582;5.276;2022-09-16T16:06:52;19.60;97.70
39017;DHT22;24784;45.582;5.276;2022-09-16T16:11:54;19.60;98.20
39017;DHT22;24784;45.582;5.276;2022-09-16T16:14:21;19.60;98.00
39017;DHT22;24784;45.582;5.276;2022-09-16T16:16:48;19.60;97.50
39017;DHT22;24784;45.582;5.276;2022-09-16T16:19:14;19.50;98.20
39017;DHT22;24784;45.582;5.276;2022-09-16T16:21:40;19.40;98.30
39017;DHT22;24784;45.582;5.276;2022-09-16T16:24:13;19.50;98.60
39017;DHT22;24784;45.582;5.276;2022-09-16T16:26:39;19.50;98.70
39017;DHT22;24784;45.582;5.276;2022-09-16T16:29:04;19.50;98.20
39017;DHT22;24784;45.582;5.276;2022-09-16T16:31:31;19.50;97.70
39017;DHT22;24784;45.582;5.276;2022-09-16T16:34:02;19.50;98.00
39017;DHT22;24784;45.582;5.276;2022-09-16T16:36:35;19.40;98.90
39017;DHT22;24784;45.582;5.276;2022-09-16T16:39:01;19.40;99.10
39017;DHT22;24784;45.582;5.276;2022-09-16T16:41:27;19.40;98.00
39017;DHT22;24784;45.582;5.276;2022-09-16T16:43:53;19.30;98.10
39017;DHT22;24784;45.582;5.276;2022-09-16T16:46:18;19.30;97.00
39017;DHT22;24784;45.582;5.276;2022-09-16T16:48:44;19.30;97.10
39017;DHT22;24784;45.582;5.276;2022-09-16T16:51:11;19.30;97.00
39017;DHT22;24784;45.582;5.276;2022-09-16T16:53:38;19.30;96.90
39017;DHT22;24784;45.582;5.276;2022-09-16T16:56:11;19.10;96.10
39017;DHT22;24784;45.582;5.276;2022-09-16T16:58:38;19.00;97.00
39017;DHT22;24784;45.582;5.276;2022-09-16T17:01:14;19.00;97.00
39017;DHT22;24784;45.582;5.276;2022-09-16T17:03:41;19.00;97.70
39017;DHT22;24784;45.582;5.276;2022-09-16T17:06:09;18.90;98.00
39017;DHT22;24784;45.582;5.276;2022-09-16T17:08:35;18.90;98.60
39017;DHT22;24784;45.582;5.276;2022-09-16T17:11:08;18.80;98.70
39017;DHT22;24784;45.582;5.276;2022-09-16T17:13:41;18.80;98.40
39017;DHT22;24784;45.582;5.276;2022-09-16T17:16:08;18.80;99.10
39017;DHT22;24784;45.582;5.276;2022-09-16T17:18:38;18.70;99.00
39017;DHT22;24784;45.582;5.276;2022-09-16T17:21:07;18.60;99.30
39017;DHT22;24784;45.582;5.276;2022-09-16T17:23:33;18.50;99.80
39017;DHT22;24784;45.582;5.276;2022-09-16T17:25:59;18.50;99.90
39017;DHT22;24784;45.582;5.276;2022-09-16T17:28:26;18.30;99.50
39017;DHT22;24784;45.582;5.276;2022-09-16T17:30:52;18.30;99.60
39017;DHT22;24784;45.582;5.276;2022-09-16T17:33:18;18.40;99.80
39017;DHT22;24784;45.582;5.276;2022-09-16T17:35:44;18.20;99.90
39017;DHT22;24784;45.582;5.276;2022-09-16T17:38:12;18.20;99.90
39017;DHT22;24784;45.582;5.276;2022-09-16T17:40:37;18.20;99.90
39017;DHT22;24784;45.582;5.276;2022-09-16T17:43:03;18.20;99.90
39017;DHT22;24784;45.582;5.276;2022-09-16T17:45:31;18.20;99.70
39017;DHT22;24784;45.582;5.276;2022-09-16T17:47:57;18.30;99.80
39017;DHT22;24784;45.582;5.276;2022-09-16T17:50:24;18.30;99.40
39017;DHT22;24784;45.582;5.276;2022-09-16T17:52:49;18.30;99.30
39017;DHT22;24784;45.582;5.276;2022-09-16T17:55:15;18.30;99.50
39017;DHT22;24784;45.582;5.276;2022-09-16T17:57:41;18.30;99.70
39017;DHT22;24784;45.582;5.276;2022-09-16T18:00:07;18.20;99.90
39017;DHT22;24784;45.582;5.276;2022-09-16T18:02:34;18.20;99.90
39017;DHT22;24784;45.582;5.276;2022-09-16T18:05:00;18.10;99.90
39017;DHT22;24784;45.582;5.276;2022-09-16T18:07:26;18.10;99.90
39017;DHT22;24784;45.582;5.276;2022-09-16T18:09:52;18.10;99.90
39017;DHT22;24784;45.582;5.276;2022-09-16T18:12:18;18.00;99.90
39017;DHT22;24784;45.582;5.276;2022-09-16T18:14:44;18.00;99.90
39017;DHT22;24784;45.582;5.276;2022-09-16T18:17:09;18.10;99.80
39017;DHT22;24784;45.582;5.276;2022-09-16T18:19:35;18.00;99.90
39017;DHT22;24784;45.582;5.276;2022-09-16T18:22:01;18.00;99.90
39017;DHT22;24784;45.582;5.276;2022-09-16T18:24:28;17.90;99.90
39017;DHT22;24784;45.582;5.276;2022-09-16T18:26:54;17.90;99.90
39017;DHT22;24784;45.582;5.276;2022-09-16T18:29:19;17.90;99.90
39017;DHT22;24784;45.582;5.276;2022-09-16T18:31:47;17.80;99.90
39017;DHT22;24784;45.582;5.276;2022-09-16T18:34:14;17.80;99.90
39017;DHT22;24784;45.582;5.276;2022-09-16T18:36:40;17.70;99.90
39017;DHT22;24784;45.582;5.276;2022-09-16T18:39:10;17.70;99.90
39017;DHT22;24784;45.582;5.276;2022-09-16T18:41:38;17.50;99.90
39017;DHT22;24784;45.582;5.276;2022-09-16T18:44:19;17.60;99.90
39017;DHT22;24784;45.582;5.276;2022-09-16T18:46:45;17.60;99.90
39017;DHT22;24784;45.582;5.276;2022-09-16T18:49:13;17.60;99.90
39017;DHT22;24784;45.582;5.276;2022-09-16T18:51:41;17.60;99.90
39017;DHT22;24784;45.582;5.276;2022-09-16T18:54:11;17.60;99.50
39017;DHT22;24784;45.582;5.276;2022-09-16T18:56:38;17.70;99.10
39017;DHT22;24784;45.582;5.276;2022-09-16T18:59:07;17.60;99.80
39017;DHT22;24784;45.582;5.276;2022-09-16T19:01:36;17.60;99.90
39017;DHT22;24784;45.582;5.276;2022-09-16T19:04:07;17.60;99.90
39017;DHT22;24784;45.582;5.276;2022-09-16T19:06:39;17.60;99.90
39017;DHT22;24784;45.582;5.276;2022-09-16T19:09:07;17.50;99.90